sensor_id;sensor_type;location;lat;lon;timestamp;P1;durP1;ratioP1;P2;durP2;ratioP2
15327;SDS011;7764;51.430;6.840;2023-09-18T00:00:13;12.45;;;8.65;;
15327;SDS011;7764;51.430;6.840;2023-09-18T00:02:41;12.35;;;9.27;;
15327;SDS011;7764;51.430;6.840;2023-09-18T00:05:08;12.73;;;9.27;;
15327;SDS011;7764;51.430;6.840;2023-09-18T00:07:35;14.35;;;8.75;;
15327;SDS011;7764;51.430;6.840;2023-09-18T00:10:02;11.10;;;8.95;;
15327;SDS011;7764;51.430;6.840;2023-09-18T00:12:30;15.95;;;9.20;;
15327;SDS011;7764;51.430;6.840;2023-09-18T00:14:58;11.35;;;9.05;;
15327;SDS011;7764;51.430;6.840;2023-09-18T00:17:25;14.85;;;9.30;;
15327;SDS011;7764;51.430;6.840;2023-09-18T00:19:52;12.32;;;9.18;;
15327;SDS011;7764;51.430;6.840;2023-09-18T00:22:19;12.55;;;9.05;;
15327;SDS011;7764;51.430;6.840;2023-09-18T00:24:46;12.85;;;8.60;;
15327;SDS011;7764;51.430;6.840;2023-09-18T00:27:13;12.05;;;8.80;;
15327;SDS011;7764;51.430;6.840;2023-09-18T00:29:42;12.65;;;8.98;;
15327;SDS011;7764;51.430;6.840;2023-09-18T00:32:09;11.10;;;8.43;;
15327;SDS011;7764;51.430;6.840;2023-09-18T00:34:36;11.15;;;8.95;;
15327;SDS011;7764;51.430;6.840;2023-09-18T00:37:03;11.38;;;8.82;;
15327;SDS011;7764;51.430;6.840;2023-09-18T00:39:31;12.57;;;8.13;;
15327;SDS011;7764;51.430;6.840;2023-09-18T00:41:58;12.25;;;8.55;;
15327;SDS011;7764;51.430;6.840;2023-09-18T00:44:25;12.13;;;8.20;;
15327;SDS011;7764;51.430;6.840;2023-09-18T00:46:54;11.27;;;7.95;;
15327;SDS011;7764;51.430;6.840;2023-09-18T00:49:21;13.10;;;8.60;;
15327;SDS011;7764;51.430;6.840;2023-09-18T00:51:50;12.35;;;8.85;;
15327;SDS011;7764;51.430;6.840;2023-09-18T00:54:17;13.10;;;8.60;;
15327;SDS011;7764;51.430;6.840;2023-09-18T00:56:45;12.15;;;8.63;;
15327;SDS011;7764;51.430;6.840;2023-09-18T00:59:13;11.43;;;8.90;;
15327;SDS011;7764;51.430;6.840;2023-09-18T01:01:41;13.50;;;9.02;;
15327;SDS011;7764;51.430;6.840;2023-09-18T01:04:11;11.73;;;8.27;;
15327;SDS011;7764;51.430;6.840;2023-09-18T01:06:38;11.48;;;8.65;;
15327;SDS011;7764;51.430;6.840;2023-09-18T01:09:05;13.48;;;9.00;;
15327;SDS011;7764;51.430;6.840;2023-09-18T01:11:41;13.98;;;8.18;;
15327;SDS011;7764;51.430;6.840;2023-09-18T01:14:17;11.65;;;8.38;;
15327;SDS011;7764;51.430;6.840;2023-09-18T01:16:48;12.93;;;8.40;;
15327;SDS011;7764;51.430;6.840;2023-09-18T01:19:41;13.25;;;8.80;;
15327;SDS011;7764;51.430;6.840;2023-09-18T01:22:11;15.80;;;8.63;;
15327;SDS011;7764;51.430;6.840;2023-09-18T01:24:40;12.32;;;8.23;;
15327;SDS011;7764;51.430;6.840;2023-09-18T01:27:08;14.13;;;9.20;;
15327;SDS011;7764;51.430;6.840;2023-09-18T01:29:35;12.80;;;8.35;;
15327;SDS011;7764;51.430;6.840;2023-09-18T01:32:03;15.32;;;8.90;;
15327;SDS011;7764;51.430;6.840;2023-09-18T01:34:32;11.43;;;8.10;;
15327;SDS011;7764;51.430;6.840;2023-09-18T01:37:02;16.55;;;8.88;;
15327;SDS011;7764;51.430;6.840;2023-09-18T01:39:33;13.48;;;8.52;;
15327;SDS011;7764;51.430;6.840;2023-09-18T01:42:03;11.80;;;8.23;;
15327;SDS011;7764;51.430;6.840;2023-09-18T01:44:31;15.70;;;8.18;;
15327;SDS011;7764;51.430;6.840;2023-09-18T01:46:59;15.10;;;7.68;;
15327;SDS011;7764;51.430;6.840;2023-09-18T01:49:28;12.00;;;8.40;;
15327;SDS011;7764;51.430;6.840;2023-09-18T01:51:57;15.10;;;8.55;;
15327;SDS011;7764;51.430;6.840;2023-09-18T01:54:24;15.73;;;8.35;;
15327;SDS011;7764;51.430;6.840;2023-09-18T01:56:51;15.63;;;8.38;;
15327;SDS011;7764;51.430;6.840;2023-09-18T01:59:20;18.05;;;8.70;;
15327;SDS011;7764;51.430;6.840;2023-09-18T02:01:48;18.20;;;8.50;;
15327;SDS011;7764;51.430;6.840;2023-09-18T02:04:16;19.38;;;8.45;;
15327;SDS011;7764;51.430;6.840;2023-09-18T02:06:44;18.55;;;9.05;;
15327;SDS011;7764;51.430;6.840;2023-09-18T02:09:12;13.90;;;8.13;;
15327;SDS011;7764;51.430;6.840;2023-09-18T02:11:40;15.00;;;8.30;;
15327;SDS011;7764;51.430;6.840;2023-09-18T02:14:08;14.80;;;8.27;;
15327;SDS011;7764;51.430;6.840;2023-09-18T02:16:39;17.98;;;9.38;;
15327;SDS011;7764;51.430;6.840;2023-09-18T02:19:07;15.40;;;9.30;;
15327;SDS011;7764;51.430;6.840;2023-09-18T02:21:35;15.57;;;8.70;;
15327;SDS011;7764;51.430;6.840;2023-09-18T02:24:02;13.82;;;8.10;;
15327;SDS011;7764;51.430;6.840;2023-09-18T02:26:30;16.33;;;8.93;;
15327;SDS011;7764;51.430;6.840;2023-09-18T02:28:57;15.57;;;8.48;;
15327;SDS011;7764;51.430;6.840;2023-09-18T02:31:25;18.77;;;8.80;;
15327;SDS011;7764;51.430;6.840;2023-09-18T02:33:55;16.35;;;8.68;;
15327;SDS011;7764;51.430;6.840;2023-09-18T02:36:23;14.73;;;7.70;;
15327;SDS011;7764;51.430;6.840;2023-09-18T02:38:51;12.88;;;8.25;;
15327;SDS011;7764;51.430;6.840;2023-09-18T02:41:17;14.85;;;8.07;;
15327;SDS011;7764;51.430;6.840;2023-09-18T02:43:44;14.90;;;8.48;;
15327;SDS011;7764;51.430;6.840;2023-09-18T02:46:11;15.48;;;8.13;;
15327;SDS011;7764;51.430;6.840;2023-09-18T02:48:38;17.13;;;7.78;;
15327;SDS011;7764;51.430;6.840;2023-09-18T02:51:06;12.70;;;8.68;;
15327;SDS011;7764;51.430;6.840;2023-09-18T02:53:35;11.27;;;8.38;;
15327;SDS011;7764;51.430;6.840;2023-09-18T02:56:02;11.65;;;7.97;;
15327;SDS011;7764;51.430;6.840;2023-09-18T02:58:30;14.45;;;8.98;;
15327;SDS011;7764;51.430;6.840;2023-09-18T03:00:59;9.75;;;6.93;;
15327;SDS011;7764;51.430;6.840;2023-09-18T03:03:27;9.70;;;6.80;;
15327;SDS011;7764;51.430;6.840;2023-09-18T03:05:59;14.38;;;6.80;;
15327;SDS011;7764;51.430;6.840;2023-09-18T03:08:30;11.55;;;6.65;;
15327;SDS011;7764;51.430;6.840;2023-09-18T03:10:57;9.40;;;5.75;;
15327;SDS011;7764;51.430;6.840;2023-09-18T03:13:26;11.10;;;6.63;;
15327;SDS011;7764;51.430;6.840;2023-09-18T03:15:53;11.75;;;6.20;;
15327;SDS011;7764;51.430;6.840;2023-09-18T03:18:21;9.40;;;6.00;;
15327;SDS011;7764;51.430;6.840;2023-09-18T03:20:48;15.27;;;6.00;;
15327;SDS011;7764;51.430;6.840;2023-09-18T03:23:17;9.50;;;5.72;;
15327;SDS011;7764;51.430;6.840;2023-09-18T03:25:49;9.95;;;5.97;;
15327;SDS011;7764;51.430;6.840;2023-09-18T03:28:19;11.80;;;5.70;;
15327;SDS011;7764;51.430;6.840;2023-09-18T03:30:48;11.38;;;6.18;;
15327;SDS011;7764;51.430;6.840;2023-09-18T03:33:15;9.10;;;5.85;;
15327;SDS011;7764;51.430;6.840;2023-09-18T03:35:45;10.05;;;6.00;;
15327;SDS011;7764;51.430;6.840;2023-09-18T03:38:14;9.35;;;5.75;;
15327;SDS011;7764;51.430;6.840;2023-09-18T03:40:41;12.05;;;5.88;;
15327;SDS011;7764;51.430;6.840;2023-09-18T03:43:12;10.35;;;5.85;;
15327;SDS011;7764;51.430;6.840;2023-09-18T03:45:39;11.13;;;5.85;;
15327;SDS011;7764;51.430;6.840;2023-09-18T03:48:07;13.25;;;6.13;;
15327;SDS011;7764;51.430;6.840;2023-09-18T03:50:34;11.23;;;5.97;;
15327;SDS011;7764;51.430;6.840;2023-09-18T03:53:01;13.02;;;6.20;;
15327;SDS011;7764;51.430;6.840;2023-09-18T03:55:28;12.85;;;7.25;;
15327;SDS011;7764;51.430;6.840;2023-09-18T03:57:55;10.55;;;6.20;;
15327;SDS011;7764;51.430;6.840;2023-09-18T04:00:23;11.88;;;8.30;;
15327;SDS011;7764;51.430;6.840;2023-09-18T04:02:50;11.15;;;6.07;;
15327;SDS011;7764;51.430;6.840;2023-09-18T04:05:17;10.43;;;5.72;;
15327;SDS011;7764;51.430;6.840;2023-09-18T04:07:45;11.10;;;5.90;;
15327;SDS011;7764;51.430;6.840;2023-09-18T04:10:12;9.52;;;5.88;;
15327;SDS011;7764;51.430;6.840;2023-09-18T04:12:44;10.80;;;5.90;;
15327;SDS011;7764;51.430;6.840;2023-09-18T04:15:13;10.68;;;5.88;;
15327;SDS011;7764;51.430;6.840;2023-09-18T04:17:45;13.32;;;6.63;;
15327;SDS011;7764;51.430;6.840;2023-09-18T04:20:13;14.40;;;7.00;;
15327;SDS011;7764;51.430;6.840;2023-09-18T04:22:42;13.18;;;5.63;;
15327;SDS011;7764;51.430;6.840;2023-09-18T04:25:11;11.45;;;5.60;;
15327;SDS011;7764;51.430;6.840;2023-09-18T04:27:39;10.18;;;5.60;;
15327;SDS011;7764;51.430;6.840;2023-09-18T04:30:07;9.07;;;5.10;;
15327;SDS011;7764;51.430;6.840;2023-09-18T04:32:35;10.90;;;5.80;;
15327;SDS011;7764;51.430;6.840;2023-09-18T04:35:05;10.07;;;6.00;;
15327;SDS011;7764;51.430;6.840;2023-09-18T04:37:36;11.70;;;6.10;;
15327;SDS011;7764;51.430;6.840;2023-09-18T04:40:04;10.57;;;6.00;;
15327;SDS011;7764;51.430;6.840;2023-09-18T04:42:36;13.07;;;6.03;;
15327;SDS011;7764;51.430;6.840;2023-09-18T04:45:06;13.75;;;8.88;;
15327;SDS011;7764;51.430;6.840;2023-09-18T04:47:35;13.23;;;7.88;;
15327;SDS011;7764;51.430;6.840;2023-09-18T04:50:02;14.55;;;6.13;;
15327;SDS011;7764;51.430;6.840;2023-09-18T04:52:32;9.45;;;5.82;;
15327;SDS011;7764;51.430;6.840;2023-09-18T04:54:58;9.30;;;6.18;;
15327;SDS011;7764;51.430;6.840;2023-09-18T04:57:26;16.42;;;11.60;;
15327;SDS011;7764;51.430;6.840;2023-09-18T04:59:53;12.23;;;7.65;;
15327;SDS011;7764;51.430;6.840;2023-09-18T05:02:20;11.68;;;6.32;;
15327;SDS011;7764;51.430;6.840;2023-09-18T05:04:47;14.80;;;6.47;;
15327;SDS011;7764;51.430;6.840;2023-09-18T05:07:16;11.27;;;6.70;;
15327;SDS011;7764;51.430;6.840;2023-09-18T05:09:44;10.85;;;6.07;;
15327;SDS011;7764;51.430;6.840;2023-09-18T05:12:12;11.23;;;6.20;;
15327;SDS011;7764;51.430;6.840;2023-09-18T05:14:41;9.48;;;5.75;;
15327;SDS011;7764;51.430;6.840;2023-09-18T05:17:09;9.85;;;6.00;;
15327;SDS011;7764;51.430;6.840;2023-09-18T05:19:37;10.40;;;6.32;;
15327;SDS011;7764;51.430;6.840;2023-09-18T05:22:04;14.88;;;6.65;;
15327;SDS011;7764;51.430;6.840;2023-09-18T05:24:31;12.50;;;7.00;;
15327;SDS011;7764;51.430;6.840;2023-09-18T05:26:59;11.30;;;6.50;;
15327;SDS011;7764;51.430;6.840;2023-09-18T05:29:26;10.60;;;6.20;;
15327;SDS011;7764;51.430;6.840;2023-09-18T05:31:53;17.52;;;9.77;;
15327;SDS011;7764;51.430;6.840;2023-09-18T05:34:20;13.85;;;7.20;;
15327;SDS011;7764;51.430;6.840;2023-09-18T05:36:47;11.60;;;6.40;;
15327;SDS011;7764;51.430;6.840;2023-09-18T05:39:15;12.20;;;6.43;;
15327;SDS011;7764;51.430;6.840;2023-09-18T05:41:42;14.23;;;6.90;;
15327;SDS011;7764;51.430;6.840;2023-09-18T05:44:10;12.13;;;7.18;;
15327;SDS011;7764;51.430;6.840;2023-09-18T05:46:41;62.28;;;47.10;;
15327;SDS011;7764;51.430;6.840;2023-09-18T05:49:08;59.28;;;45.95;;
15327;SDS011;7764;51.430;6.840;2023-09-18T05:51:35;12.18;;;7.50;;
15327;SDS011;7764;51.430;6.840;2023-09-18T05:54:02;11.65;;;6.97;;
15327;SDS011;7764;51.430;6.840;2023-09-18T05:56:29;18.63;;;12.27;;
15327;SDS011;7764;51.430;6.840;2023-09-18T05:58:56;11.82;;;6.63;;
15327;SDS011;7764;51.430;6.840;2023-09-18T06:01:24;12.93;;;5.93;;
15327;SDS011;7764;51.430;6.840;2023-09-18T06:03:53;13.43;;;6.22;;
15327;SDS011;7764;51.430;6.840;2023-09-18T06:06:19;8.77;;;5.90;;
15327;SDS011;7764;51.430;6.840;2023-09-18T06:08:46;11.73;;;6.22;;
15327;SDS011;7764;51.430;6.840;2023-09-18T06:11:13;12.13;;;5.80;;
15327;SDS011;7764;51.430;6.840;2023-09-18T06:13:40;14.48;;;6.05;;
15327;SDS011;7764;51.430;6.840;2023-09-18T06:16:08;12.68;;;5.88;;
15327;SDS011;7764;51.430;6.840;2023-09-18T06:18:38;17.10;;;7.72;;
15327;SDS011;7764;51.430;6.840;2023-09-18T06:21:05;9.80;;;5.72;;
15327;SDS011;7764;51.430;6.840;2023-09-18T06:23:32;11.93;;;5.90;;
15327;SDS011;7764;51.430;6.840;2023-09-18T06:25:59;12.65;;;6.03;;
15327;SDS011;7764;51.430;6.840;2023-09-18T06:28:27;12.55;;;5.40;;
15327;SDS011;7764;51.430;6.840;2023-09-18T06:30:53;11.82;;;6.05;;
15327;SDS011;7764;51.430;6.840;2023-09-18T06:33:21;9.30;;;5.50;;
15327;SDS011;7764;51.430;6.840;2023-09-18T06:35:49;15.93;;;8.15;;
15327;SDS011;7764;51.430;6.840;2023-09-18T06:38:17;10.82;;;5.75;;
15327;SDS011;7764;51.430;6.840;2023-09-18T06:40:45;15.45;;;9.00;;
15327;SDS011;7764;51.430;6.840;2023-09-18T06:43:13;13.10;;;6.32;;
15327;SDS011;7764;51.430;6.840;2023-09-18T06:45:41;14.05;;;5.35;;
15327;SDS011;7764;51.430;6.840;2023-09-18T06:48:08;12.63;;;5.68;;
15327;SDS011;7764;51.430;6.840;2023-09-18T06:50:35;13.13;;;5.75;;
15327;SDS011;7764;51.430;6.840;2023-09-18T06:53:06;10.65;;;5.38;;
15327;SDS011;7764;51.430;6.840;2023-09-18T06:55:33;16.38;;;6.65;;
15327;SDS011;7764;51.430;6.840;2023-09-18T06:58:00;11.93;;;5.25;;
15327;SDS011;7764;51.430;6.840;2023-09-18T07:00:27;12.70;;;4.80;;
15327;SDS011;7764;51.430;6.840;2023-09-18T07:02:55;10.65;;;5.47;;
15327;SDS011;7764;51.430;6.840;2023-09-18T07:05:22;13.20;;;4.80;;
15327;SDS011;7764;51.430;6.840;2023-09-18T07:07:52;9.38;;;4.50;;
15327;SDS011;7764;51.430;6.840;2023-09-18T07:10:20;11.00;;;5.35;;
15327;SDS011;7764;51.430;6.840;2023-09-18T07:12:48;9.57;;;4.28;;
15327;SDS011;7764;51.430;6.840;2023-09-18T07:15:15;9.88;;;4.30;;
15327;SDS011;7764;51.430;6.840;2023-09-18T07:17:43;9.15;;;3.97;;
15327;SDS011;7764;51.430;6.840;2023-09-18T07:20:10;12.25;;;4.55;;
15327;SDS011;7764;51.430;6.840;2023-09-18T07:22:39;9.60;;;3.83;;
15327;SDS011;7764;51.430;6.840;2023-09-18T07:25:11;6.60;;;3.85;;
15327;SDS011;7764;51.430;6.840;2023-09-18T07:27:41;11.75;;;3.80;;
15327;SDS011;7764;51.430;6.840;2023-09-18T07:30:09;7.68;;;3.55;;
15327;SDS011;7764;51.430;6.840;2023-09-18T07:32:39;12.57;;;3.83;;
15327;SDS011;7764;51.430;6.840;2023-09-18T07:35:07;8.23;;;3.25;;
15327;SDS011;7764;51.430;6.840;2023-09-18T07:37:35;9.52;;;3.65;;
15327;SDS011;7764;51.430;6.840;2023-09-18T07:40:02;8.60;;;3.40;;
15327;SDS011;7764;51.430;6.840;2023-09-18T07:42:31;8.95;;;3.85;;
15327;SDS011;7764;51.430;6.840;2023-09-18T07:45:02;12.93;;;5.25;;
15327;SDS011;7764;51.430;6.840;2023-09-18T07:47:30;7.90;;;3.15;;
15327;SDS011;7764;51.430;6.840;2023-09-18T07:49:57;6.60;;;3.60;;
15327;SDS011;7764;51.430;6.840;2023-09-18T07:52:24;11.32;;;4.70;;
15327;SDS011;7764;51.430;6.840;2023-09-18T07:54:51;7.47;;;2.90;;
15327;SDS011;7764;51.430;6.840;2023-09-18T07:57:18;6.32;;;2.70;;
15327;SDS011;7764;51.430;6.840;2023-09-18T07:59:48;5.97;;;3.00;;
15327;SDS011;7764;51.430;6.840;2023-09-18T08:02:16;8.40;;;2.90;;
15327;SDS011;7764;51.430;6.840;2023-09-18T08:04:44;8.75;;;2.72;;
15327;SDS011;7764;51.430;6.840;2023-09-18T08:07:12;6.28;;;2.80;;
15327;SDS011;7764;51.430;6.840;2023-09-18T08:09:39;4.57;;;2.75;;
15327;SDS011;7764;51.430;6.840;2023-09-18T08:12:07;6.35;;;2.83;;
15327;SDS011;7764;51.430;6.840;2023-09-18T08:14:35;6.20;;;3.10;;
15327;SDS011;7764;51.430;6.840;2023-09-18T08:17:03;7.22;;;2.60;;
15327;SDS011;7764;51.430;6.840;2023-09-18T08:19:36;7.63;;;2.60;;
15327;SDS011;7764;51.430;6.840;2023-09-18T08:22:04;6.95;;;2.92;;
15327;SDS011;7764;51.430;6.840;2023-09-18T08:24:31;10.43;;;2.67;;
15327;SDS011;7764;51.430;6.840;2023-09-18T08:26:58;5.68;;;2.55;;
15327;SDS011;7764;51.430;6.840;2023-09-18T08:29:25;4.38;;;2.47;;
15327;SDS011;7764;51.430;6.840;2023-09-18T08:31:52;4.70;;;2.13;;
15327;SDS011;7764;51.430;6.840;2023-09-18T08:34:19;5.15;;;2.50;;
15327;SDS011;7764;51.430;6.840;2023-09-18T08:36:48;8.00;;;3.83;;
15327;SDS011;7764;51.430;6.840;2023-09-18T08:39:15;4.40;;;2.33;;
15327;SDS011;7764;51.430;6.840;2023-09-18T08:41:42;8.48;;;3.55;;
15327;SDS011;7764;51.430;6.840;2023-09-18T08:44:11;4.00;;;2.30;;
15327;SDS011;7764;51.430;6.840;2023-09-18T08:46:39;6.45;;;2.10;;
15327;SDS011;7764;51.430;6.840;2023-09-18T08:49:08;7.57;;;2.47;;
15327;SDS011;7764;51.430;6.840;2023-09-18T08:51:36;4.90;;;2.30;;
15327;SDS011;7764;51.430;6.840;2023-09-18T08:54:05;7.40;;;2.30;;
15327;SDS011;7764;51.430;6.840;2023-09-18T08:56:33;4.80;;;2.42;;
15327;SDS011;7764;51.430;6.840;2023-09-18T08:59:00;4.85;;;2.38;;
15327;SDS011;7764;51.430;6.840;2023-09-18T09:01:27;5.60;;;2.55;;
15327;SDS011;7764;51.430;6.840;2023-09-18T09:03:54;5.78;;;2.33;;
15327;SDS011;7764;51.430;6.840;2023-09-18T09:06:22;7.18;;;2.22;;
15327;SDS011;7764;51.430;6.840;2023-09-18T09:08:52;8.30;;;2.17;;
15327;SDS011;7764;51.430;6.840;2023-09-18T09:11:20;3.30;;;2.00;;
15327;SDS011;7764;51.430;6.840;2023-09-18T09:13:47;3.72;;;2.13;;
15327;SDS011;7764;51.430;6.840;2023-09-18T09:16:40;5.95;;;2.10;;
15327;SDS011;7764;51.430;6.840;2023-09-18T09:19:29;5.10;;;2.17;;
15327;SDS011;7764;51.430;6.840;2023-09-18T09:21:57;11.05;;;7.38;;
15327;SDS011;7764;51.430;6.840;2023-09-18T09:24:38;3.80;;;2.20;;
15327;SDS011;7764;51.430;6.840;2023-09-18T09:27:08;4.68;;;2.20;;
15327;SDS011;7764;51.430;6.840;2023-09-18T09:29:35;4.95;;;2.20;;
15327;SDS011;7764;51.430;6.840;2023-09-18T09:32:11;4.35;;;1.77;;
15327;SDS011;7764;51.430;6.840;2023-09-18T09:34:41;6.40;;;2.17;;
15327;SDS011;7764;51.430;6.840;2023-09-18T09:37:08;3.92;;;2.10;;
15327;SDS011;7764;51.430;6.840;2023-09-18T09:39:45;3.97;;;1.92;;
15327;SDS011;7764;51.430;6.840;2023-09-18T09:42:16;3.15;;;2.10;;
15327;SDS011;7764;51.430;6.840;2023-09-18T09:44:49;5.15;;;2.10;;
15327;SDS011;7764;51.430;6.840;2023-09-18T09:47:32;3.08;;;2.00;;
15327;SDS011;7764;51.430;6.840;2023-09-18T09:50:08;5.47;;;2.50;;
15327;SDS011;7764;51.430;6.840;2023-09-18T09:52:40;7.18;;;2.97;;
15327;SDS011;7764;51.430;6.840;2023-09-18T09:55:19;6.63;;;3.55;;
15327;SDS011;7764;51.430;6.840;2023-09-18T09:57:50;5.43;;;2.38;;
15327;SDS011;7764;51.430;6.840;2023-09-18T10:00:18;4.95;;;2.10;;
15327;SDS011;7764;51.430;6.840;2023-09-18T10:02:57;5.20;;;2.30;;
15327;SDS011;7764;51.430;6.840;2023-09-18T10:05:26;4.50;;;2.25;;
15327;SDS011;7764;51.430;6.840;2023-09-18T10:07:57;3.28;;;2.00;;
15327;SDS011;7764;51.430;6.840;2023-09-18T10:10:28;3.05;;;1.90;;
15327;SDS011;7764;51.430;6.840;2023-09-18T10:12:59;7.53;;;4.50;;
15327;SDS011;7764;51.430;6.840;2023-09-18T10:15:33;3.78;;;1.83;;
15327;SDS011;7764;51.430;6.840;2023-09-18T10:18:04;4.57;;;2.50;;
15327;SDS011;7764;51.430;6.840;2023-09-18T10:20:39;20.67;;;17.45;;
15327;SDS011;7764;51.430;6.840;2023-09-18T10:23:12;7.07;;;2.63;;
15327;SDS011;7764;51.430;6.840;2023-09-18T10:25:53;5.35;;;2.33;;
15327;SDS011;7764;51.430;6.840;2023-09-18T10:28:25;6.57;;;3.13;;
15327;SDS011;7764;51.430;6.840;2023-09-18T10:30:56;6.45;;;2.22;;
15327;SDS011;7764;51.430;6.840;2023-09-18T10:33:24;5.10;;;2.13;;
15327;SDS011;7764;51.430;6.840;2023-09-18T10:35:53;6.35;;;2.10;;
15327;SDS011;7764;51.430;6.840;2023-09-18T10:38:22;4.57;;;2.30;;
15327;SDS011;7764;51.430;6.840;2023-09-18T10:40:51;5.88;;;2.88;;
15327;SDS011;7764;51.430;6.840;2023-09-18T10:43:20;8.45;;;5.20;;
15327;SDS011;7764;51.430;6.840;2023-09-18T10:45:48;5.55;;;2.42;;
15327;SDS011;7764;51.430;6.840;2023-09-18T10:48:17;4.88;;;2.60;;
15327;SDS011;7764;51.430;6.840;2023-09-18T10:50:45;5.70;;;2.53;;
15327;SDS011;7764;51.430;6.840;2023-09-18T10:53:12;5.28;;;2.50;;
15327;SDS011;7764;51.430;6.840;2023-09-18T10:55:40;5.53;;;2.38;;
15327;SDS011;7764;51.430;6.840;2023-09-18T10:58:09;6.88;;;2.53;;
15327;SDS011;7764;51.430;6.840;2023-09-18T11:00:36;6.15;;;2.40;;
15327;SDS011;7764;51.430;6.840;2023-09-18T11:03:12;3.78;;;2.25;;
15327;SDS011;7764;51.430;6.840;2023-09-18T11:05:43;4.72;;;2.30;;
15327;SDS011;7764;51.430;6.840;2023-09-18T11:08:23;4.80;;;2.50;;
15327;SDS011;7764;51.430;6.840;2023-09-18T11:10:58;5.05;;;2.67;;
15327;SDS011;7764;51.430;6.840;2023-09-18T11:13:30;7.40;;;2.53;;
15327;SDS011;7764;51.430;6.840;2023-09-18T11:18:47;4.60;;;2.28;;
15327;SDS011;7764;51.430;6.840;2023-09-18T11:21:17;6.38;;;2.67;;
15327;SDS011;7764;51.430;6.840;2023-09-18T11:23:57;5.35;;;2.42;;
15327;SDS011;7764;51.430;6.840;2023-09-18T11:26:28;7.03;;;2.28;;
15327;SDS011;7764;51.430;6.840;2023-09-18T11:28:56;4.32;;;2.20;;
15327;SDS011;7764;51.430;6.840;2023-09-18T11:34:12;4.47;;;2.90;;
15327;SDS011;7764;51.430;6.840;2023-09-18T11:36:46;6.43;;;2.47;;
15327;SDS011;7764;51.430;6.840;2023-09-18T11:39:14;6.22;;;2.63;;
15327;SDS011;7764;51.430;6.840;2023-09-18T11:42:09;7.93;;;3.00;;
15327;SDS011;7764;51.430;6.840;2023-09-18T11:44:37;4.55;;;2.47;;
15327;SDS011;7764;51.430;6.840;2023-09-18T11:47:12;5.55;;;2.70;;
15327;SDS011;7764;51.430;6.840;2023-09-18T11:49:49;4.78;;;2.80;;
15327;SDS011;7764;51.430;6.840;2023-09-18T11:52:19;9.80;;;2.72;;
15327;SDS011;7764;51.430;6.840;2023-09-18T11:54:47;5.78;;;2.63;;
15327;SDS011;7764;51.430;6.840;2023-09-18T11:57:15;6.45;;;2.80;;
15327;SDS011;7764;51.430;6.840;2023-09-18T11:59:43;6.20;;;2.60;;
15327;SDS011;7764;51.430;6.840;2023-09-18T12:02:11;4.60;;;2.60;;
15327;SDS011;7764;51.430;6.840;2023-09-18T12:04:45;6.15;;;2.70;;
15327;SDS011;7764;51.430;6.840;2023-09-18T12:07:14;7.15;;;2.67;;
15327;SDS011;7764;51.430;6.840;2023-09-18T12:09:42;8.73;;;3.40;;
15327;SDS011;7764;51.430;6.840;2023-09-18T12:12:09;7.25;;;2.72;;
15327;SDS011;7764;51.430;6.840;2023-09-18T12:14:39;5.70;;;2.80;;
15327;SDS011;7764;51.430;6.840;2023-09-18T12:17:07;9.05;;;4.68;;
15327;SDS011;7764;51.430;6.840;2023-09-18T12:19:34;5.50;;;2.55;;
15327;SDS011;7764;51.430;6.840;2023-09-18T12:22:01;11.35;;;3.33;;
15327;SDS011;7764;51.430;6.840;2023-09-18T12:24:30;6.40;;;2.33;;
15327;SDS011;7764;51.430;6.840;2023-09-18T12:26:58;5.10;;;2.80;;
15327;SDS011;7764;51.430;6.840;2023-09-18T12:29:25;11.60;;;7.65;;
15327;SDS011;7764;51.430;6.840;2023-09-18T12:31:53;4.43;;;2.50;;
15327;SDS011;7764;51.430;6.840;2023-09-18T12:34:21;5.50;;;2.83;;
15327;SDS011;7764;51.430;6.840;2023-09-18T12:36:49;8.35;;;2.80;;
15327;SDS011;7764;51.430;6.840;2023-09-18T12:39:17;5.13;;;2.50;;
15327;SDS011;7764;51.430;6.840;2023-09-18T12:41:46;6.55;;;2.50;;
15327;SDS011;7764;51.430;6.840;2023-09-18T12:44:14;5.25;;;2.70;;
15327;SDS011;7764;51.430;6.840;2023-09-18T12:46:41;5.38;;;2.60;;
15327;SDS011;7764;51.430;6.840;2023-09-18T12:49:16;5.45;;;2.45;;
15327;SDS011;7764;51.430;6.840;2023-09-18T12:51:56;4.32;;;2.40;;
15327;SDS011;7764;51.430;6.840;2023-09-18T12:54:36;4.47;;;2.70;;
15327;SDS011;7764;51.430;6.840;2023-09-18T12:57:05;5.78;;;2.53;;
15327;SDS011;7764;51.430;6.840;2023-09-18T12:59:33;6.97;;;2.65;;
15327;SDS011;7764;51.430;6.840;2023-09-18T13:02:01;5.03;;;2.60;;
15327;SDS011;7764;51.430;6.840;2023-09-18T13:04:32;8.00;;;2.83;;
15327;SDS011;7764;51.430;6.840;2023-09-18T13:07:06;4.55;;;2.22;;
15327;SDS011;7764;51.430;6.840;2023-09-18T13:09:35;5.82;;;3.35;;
15327;SDS011;7764;51.430;6.840;2023-09-18T13:12:06;5.68;;;3.55;;
15327;SDS011;7764;51.430;6.840;2023-09-18T13:17:35;5.85;;;3.22;;
15327;SDS011;7764;51.430;6.840;2023-09-18T13:20:06;5.03;;;2.88;;
15327;SDS011;7764;51.430;6.840;2023-09-18T13:22:36;7.75;;;5.13;;
15327;SDS011;7764;51.430;6.840;2023-09-18T13:25:04;4.88;;;2.55;;
15327;SDS011;7764;51.430;6.840;2023-09-18T13:27:34;4.45;;;2.47;;
15327;SDS011;7764;51.430;6.840;2023-09-18T13:30:01;4.45;;;2.60;;
15327;SDS011;7764;51.430;6.840;2023-09-18T13:32:32;6.07;;;2.20;;
15327;SDS011;7764;51.430;6.840;2023-09-18T13:35:00;11.23;;;6.53;;
15327;SDS011;7764;51.430;6.840;2023-09-18T13:37:30;5.30;;;2.95;;
15327;SDS011;7764;51.430;6.840;2023-09-18T13:39:57;6.80;;;3.17;;
15327;SDS011;7764;51.430;6.840;2023-09-18T13:42:27;5.70;;;2.60;;
15327;SDS011;7764;51.430;6.840;2023-09-18T13:44:57;4.20;;;2.47;;
15327;SDS011;7764;51.430;6.840;2023-09-18T13:47:25;5.72;;;2.58;;
15327;SDS011;7764;51.430;6.840;2023-09-18T13:49:53;4.65;;;2.63;;
15327;SDS011;7764;51.430;6.840;2023-09-18T13:52:23;6.82;;;2.90;;
15327;SDS011;7764;51.430;6.840;2023-09-18T13:54:51;4.55;;;2.50;;
15327;SDS011;7764;51.430;6.840;2023-09-18T13:57:18;6.35;;;2.60;;
15327;SDS011;7764;51.430;6.840;2023-09-18T13:59:46;6.05;;;2.80;;
15327;SDS011;7764;51.430;6.840;2023-09-18T14:02:15;5.00;;;2.42;;
15327;SDS011;7764;51.430;6.840;2023-09-18T14:04:43;4.50;;;2.20;;
15327;SDS011;7764;51.430;6.840;2023-09-18T14:07:10;4.28;;;2.30;;
15327;SDS011;7764;51.430;6.840;2023-09-18T14:09:38;10.45;;;4.97;;
15327;SDS011;7764;51.430;6.840;2023-09-18T14:12:05;5.13;;;2.70;;
15327;SDS011;7764;51.430;6.840;2023-09-18T14:14:34;8.75;;;2.60;;
15327;SDS011;7764;51.430;6.840;2023-09-18T14:17:02;4.15;;;2.33;;
15327;SDS011;7764;51.430;6.840;2023-09-18T14:19:31;6.20;;;2.35;;
15327;SDS011;7764;51.430;6.840;2023-09-18T14:21:59;5.15;;;2.65;;
15327;SDS011;7764;51.430;6.840;2023-09-18T14:24:28;5.53;;;2.55;;
15327;SDS011;7764;51.430;6.840;2023-09-18T14:26:55;4.15;;;2.50;;
15327;SDS011;7764;51.430;6.840;2023-09-18T14:29:24;4.78;;;2.50;;
15327;SDS011;7764;51.430;6.840;2023-09-18T14:31:51;5.15;;;2.47;;
15327;SDS011;7764;51.430;6.840;2023-09-18T14:34:19;6.43;;;2.70;;
15327;SDS011;7764;51.430;6.840;2023-09-18T14:36:48;6.75;;;3.03;;
15327;SDS011;7764;51.430;6.840;2023-09-18T14:39:14;6.53;;;2.80;;
15327;SDS011;7764;51.430;6.840;2023-09-18T14:41:42;5.32;;;2.38;;
15327;SDS011;7764;51.430;6.840;2023-09-18T14:44:10;5.50;;;2.78;;
15327;SDS011;7764;51.430;6.840;2023-09-18T14:46:39;4.97;;;2.20;;
15327;SDS011;7764;51.430;6.840;2023-09-18T14:49:06;6.93;;;4.10;;
15327;SDS011;7764;51.430;6.840;2023-09-18T14:51:33;5.32;;;2.30;;
15327;SDS011;7764;51.430;6.840;2023-09-18T14:54:03;4.72;;;2.17;;
15327;SDS011;7764;51.430;6.840;2023-09-18T14:56:33;5.95;;;2.50;;
15327;SDS011;7764;51.430;6.840;2023-09-18T14:59:01;3.05;;;2.13;;
15327;SDS011;7764;51.430;6.840;2023-09-18T15:01:28;11.07;;;2.88;;
15327;SDS011;7764;51.430;6.840;2023-09-18T15:03:55;4.72;;;2.13;;
15327;SDS011;7764;51.430;6.840;2023-09-18T15:06:21;3.80;;;2.60;;
15327;SDS011;7764;51.430;6.840;2023-09-18T15:08:53;5.03;;;2.55;;
15327;SDS011;7764;51.430;6.840;2023-09-18T15:11:23;6.53;;;2.45;;
15327;SDS011;7764;51.430;6.840;2023-09-18T15:13:50;4.72;;;2.63;;